createdAt,value
2022-08-27T00:01:57.904Z,5.65
2022-08-27T00:04:25.931Z,6.65
2022-08-27T00:06:54.010Z,6.13
2022-08-27T00:09:27.081Z,6.22
2022-08-27T00:11:56.229Z,6.25
2022-08-27T00:14:25.868Z,6.18
2022-08-27T00:16:54.101Z,6.65
2022-08-27T00:19:22.334Z,5.80
2022-08-27T00:21:50.127Z,6.43
2022-08-27T00:24:17.945Z,6.60
2022-08-27T00:26:46.192Z,6.85
2022-08-27T00:29:13.999Z,6.15
2022-08-27T00:31:41.844Z,6.03
2022-08-27T00:34:13.145Z,6.25
2022-08-27T00:36:42.152Z,5.93
2022-08-27T00:39:10.247Z,6.03
2022-08-27T00:41:39.394Z,5.60
2022-08-27T00:44:07.728Z,5.93
2022-08-27T00:46:57.753Z,6.50
2022-08-27T00:49:28.987Z,6.30
2022-08-27T00:52:00.613Z,6.25
2022-08-27T00:54:28.545Z,6.00
2022-08-27T00:56:56.548Z,5.32
2022-08-27T00:59:25.899Z,5.28
2022-08-27T01:02:12.690Z,6.07
2022-08-27T01:04:42.203Z,5.90
2022-08-27T01:07:10.592Z,5.25
2022-08-27T01:09:39.079Z,6.00
2022-08-27T01:12:07.094Z,5.95
2022-08-27T01:14:35.866Z,5.38
2022-08-27T01:17:04.263Z,5.40
2022-08-27T01:19:46.233Z,5.07
2022-08-27T01:22:23.390Z,5.60
2022-08-27T01:24:52.693Z,4.95
2022-08-27T01:27:23.594Z,6.10
2022-08-27T01:29:51.501Z,5.15
2022-08-27T01:32:44.516Z,5.47
2022-08-27T01:35:13.834Z,5.00
2022-08-27T01:37:42.260Z,4.63
2022-08-27T01:40:10.741Z,4.90
2022-08-27T01:42:43.101Z,5.20
2022-08-27T01:45:17.878Z,5.75
2022-08-27T01:47:46.289Z,5.75
2022-08-27T01:50:21.703Z,4.85
2022-08-27T01:52:50.860Z,4.68
2022-08-27T01:55:21.388Z,5.18
2022-08-27T01:57:49.610Z,5.80
2022-08-27T02:00:24.193Z,5.13
2022-08-27T02:02:52.308Z,4.97
2022-08-27T02:05:20.226Z,5.45
2022-08-27T02:07:48.459Z,5.30
2022-08-27T02:10:20.863Z,5.13
2022-08-27T02:12:49.896Z,4.53
2022-08-27T02:15:20.547Z,5.47
2022-08-27T02:17:48.897Z,4.68
2022-08-27T02:20:18.018Z,5.32
2022-08-27T02:22:46.440Z,4.97
2022-08-27T02:25:16.695Z,5.40
2022-08-27T02:27:45.675Z,4.60
2022-08-27T02:30:16.071Z,4.95
2022-08-27T02:32:47.560Z,5.18
2022-08-27T02:35:17.616Z,4.78
2022-08-27T02:37:46.478Z,4.97
2022-08-27T02:40:17.836Z,5.05
2022-08-27T02:42:46.326Z,5.13
2022-08-27T02:45:14.432Z,5.45
2022-08-27T02:47:42.451Z,5.25
2022-08-27T02:50:11.259Z,5.50
2022-08-27T02:52:38.963Z,5.30
2022-08-27T02:55:07.164Z,4.70
2022-08-27T02:57:36.801Z,5.25
2022-08-27T03:00:08.577Z,5.03
2022-08-27T03:02:37.349Z,5.38
2022-08-27T03:05:06.595Z,4.90
2022-08-27T03:07:35.653Z,6.47
2022-08-27T03:10:04.833Z,6.72
2022-08-27T03:12:36.233Z,6.38
2022-08-27T03:15:06.455Z,6.63
2022-08-27T03:17:53.088Z,6.15
2022-08-27T03:20:21.245Z,6.50
2022-08-27T03:22:49.588Z,7.25
2022-08-27T03:25:18.361Z,5.88
2022-08-27T03:27:46.988Z,6.00
2022-08-27T03:30:17.996Z,5.05
2022-08-27T03:32:47.364Z,5.30
2022-08-27T03:35:15.610Z,5.70
2022-08-27T03:37:43.927Z,5.72
2022-08-27T03:40:13.488Z,5.35
2022-08-27T03:42:42.797Z,5.72
2022-08-27T03:45:11.669Z,5.70
2022-08-27T03:47:39.713Z,5.28
2022-08-27T03:50:08.416Z,5.65
2022-08-27T03:52:36.965Z,5.03
2022-08-27T03:55:06.124Z,5.43
2022-08-27T03:57:34.208Z,5.35
2022-08-27T04:00:02.289Z,4.70
2022-08-27T04:02:41.673Z,5.22
2022-08-27T04:05:11.651Z,5.22
2022-08-27T04:07:41.222Z,5.70
2022-08-27T04:10:10.491Z,5.55
2022-08-27T04:12:38.974Z,5.13
2022-08-27T04:15:10.840Z,5.10
2022-08-27T04:17:40.163Z,4.95
2022-08-27T04:20:33.995Z,4.85
2022-08-27T04:22:57.237Z,4.53
2022-08-27T04:25:25.168Z,5.40
2022-08-27T04:27:54.004Z,4.90
2022-08-27T04:30:21.950Z,5.20
2022-08-27T04:32:50.851Z,5.40
2022-08-27T04:35:18.675Z,4.95
2022-08-27T04:37:46.856Z,5.15
2022-08-27T04:40:14.762Z,4.55
2022-08-27T04:42:42.905Z,4.70
2022-08-27T04:45:11.119Z,5.88
2022-08-27T04:47:39.292Z,4.97
2022-08-27T04:50:07.537Z,5.55
2022-08-27T04:52:41.076Z,5.22
2022-08-27T04:55:10.404Z,4.63
2022-08-27T04:57:38.324Z,4.72
2022-08-27T05:00:08.755Z,5.07
2022-08-27T05:02:36.910Z,5.22
2022-08-27T05:05:05.059Z,5.22
2022-08-27T05:07:33.036Z,5.72
2022-08-27T05:10:00.983Z,5.45
2022-08-27T05:12:28.568Z,5.75
2022-08-27T05:14:56.446Z,5.28
2022-08-27T05:17:24.654Z,4.82
2022-08-27T05:19:53.072Z,4.88
2022-08-27T05:22:21.491Z,5.80
2022-08-27T05:24:50.262Z,5.18
2022-08-27T05:27:18.510Z,5.68
2022-08-27T05:29:46.440Z,5.80
2022-08-27T05:32:14.357Z,5.75
2022-08-27T05:34:42.424Z,5.13
2022-08-27T05:37:10.775Z,5.88
2022-08-27T05:39:38.660Z,4.78
2022-08-27T05:42:07.756Z,4.75
2022-08-27T05:44:43.235Z,4.68
2022-08-27T05:47:11.017Z,5.68
2022-08-27T05:49:41.741Z,5.25
2022-08-27T05:52:15.467Z,5.47
2022-08-27T05:54:50.163Z,4.95
2022-08-27T05:57:18.880Z,5.53
2022-08-27T06:00:05.938Z,5.72
2022-08-27T06:02:51.255Z,5.30
2022-08-27T06:05:21.089Z,5.60
2022-08-27T06:07:50.085Z,5.50
2022-08-27T06:10:24.009Z,5.65
2022-08-27T06:12:56.842Z,5.78
2022-08-27T06:15:24.868Z,5.45
2022-08-27T06:17:53.635Z,5.57
2022-08-27T06:20:22.251Z,4.80
2022-08-27T06:22:50.107Z,5.50
2022-08-27T06:25:17.863Z,5.45
2022-08-27T06:27:45.426Z,5.65
2022-08-27T06:30:17.331Z,5.25
2022-08-27T06:32:45.681Z,5.22
2022-08-27T06:35:13.420Z,5.20
2022-08-27T06:37:41.047Z,5.18
2022-08-27T06:40:10.916Z,5.32
2022-08-27T06:42:38.879Z,4.77
2022-08-27T06:45:08.412Z,4.57
2022-08-27T06:47:36.495Z,4.65
2022-08-27T06:50:04.754Z,3.90
2022-08-27T06:52:32.986Z,4.03
2022-08-27T06:55:01.849Z,5.10
2022-08-27T06:57:31.489Z,3.93
2022-08-27T07:00:00.060Z,5.07
2022-08-27T07:02:29.937Z,4.07
2022-08-27T07:04:57.972Z,4.05
2022-08-27T07:07:36.481Z,4.13
2022-08-27T07:10:10.482Z,4.20
2022-08-27T07:12:43.658Z,3.90
2022-08-27T07:15:12.782Z,3.90
2022-08-27T07:17:44.852Z,4.40
2022-08-27T07:20:13.443Z,4.45
2022-08-27T07:22:42.193Z,3.88
2022-08-27T07:25:13.031Z,3.85
2022-08-27T07:27:42.108Z,3.63
2022-08-27T07:30:12.580Z,4.03
2022-08-27T07:32:43.853Z,3.90
2022-08-27T07:35:15.501Z,3.50
2022-08-27T07:37:44.297Z,3.80
2022-08-27T07:40:16.237Z,4.05
2022-08-27T07:43:02.587Z,3.70
2022-08-27T07:45:37.018Z,3.25
2022-08-27T07:48:05.255Z,3.20
2022-08-27T07:50:33.804Z,3.45
2022-08-27T07:53:05.795Z,2.78
2022-08-27T07:55:39.727Z,3.40
2022-08-27T07:58:11.594Z,3.70
2022-08-27T08:00:47.285Z,3.42
2022-08-27T08:03:16.279Z,3.78
2022-08-27T08:05:55.344Z,3.70
2022-08-27T08:08:25.039Z,4.07
2022-08-27T08:11:06.642Z,3.42
2022-08-27T08:13:43.970Z,3.00
2022-08-27T08:16:13.110Z,3.45
2022-08-27T08:18:42.031Z,3.22
2022-08-27T08:21:13.541Z,3.70
2022-08-27T08:23:42.955Z,4.10
2022-08-27T08:26:12.860Z,3.20
2022-08-27T08:28:41.116Z,3.13
2022-08-27T08:31:09.299Z,3.15
2022-08-27T08:33:37.785Z,3.30
2022-08-27T08:36:13.283Z,3.20
2022-08-27T08:38:41.567Z,2.95
2022-08-27T08:41:35.234Z,3.38
2022-08-27T08:44:06.839Z,2.97
2022-08-27T08:46:39.951Z,2.90
2022-08-27T08:49:16.565Z,3.60
2022-08-27T08:51:48.504Z,3.20
2022-08-27T08:54:20.781Z,3.60
2022-08-27T08:56:57.592Z,3.05
2022-08-27T08:59:43.272Z,2.63
2022-08-27T09:02:15.912Z,3.55
2022-08-27T09:04:43.972Z,3.95
2022-08-27T09:07:37.228Z,3.50
2022-08-27T09:10:11.350Z,3.83
2022-08-27T09:12:40.075Z,3.25
2022-08-27T09:15:12.413Z,2.80
2022-08-27T09:17:42.549Z,3.00
2022-08-27T09:20:25.553Z,3.22
2022-08-27T09:23:24.892Z,4.25
2022-08-27T09:25:53.992Z,3.28
2022-08-27T09:28:43.691Z,3.33
2022-08-27T09:31:19.420Z,3.40
2022-08-27T09:33:56.240Z,3.30
2022-08-27T09:36:25.843Z,3.35
2022-08-27T09:38:59.434Z,2.90
2022-08-27T09:41:29.908Z,3.35
2022-08-27T09:44:01.642Z,3.03
2022-08-27T09:46:29.841Z,3.00
2022-08-27T09:48:57.644Z,3.28
2022-08-27T09:51:28.158Z,3.20
2022-08-27T09:53:58.640Z,3.25
2022-08-27T09:56:42.326Z,3.50
2022-08-27T09:59:12.414Z,3.47
2022-08-27T10:01:54.955Z,3.87
2022-08-27T10:04:51.083Z,4.03
2022-08-27T10:07:38.883Z,4.30
2022-08-27T10:10:25.834Z,4.50
2022-08-27T10:12:58.749Z,5.63
2022-08-27T10:15:30.512Z,4.20
2022-08-27T10:18:08.514Z,3.67
2022-08-27T10:20:45.033Z,3.00
2022-08-27T10:23:31.571Z,3.45
2022-08-27T10:26:12.926Z,3.10
2022-08-27T10:29:05.212Z,3.30
2022-08-27T10:31:54.324Z,3.83
2022-08-27T10:34:28.891Z,5.75
2022-08-27T10:37:21.630Z,4.82
2022-08-27T10:40:25.422Z,4.60
2022-08-27T10:43:32.724Z,5.07
2022-08-27T10:46:06.382Z,4.22
2022-08-27T10:48:35.140Z,3.80
2022-08-27T10:51:28.924Z,3.20
2022-08-27T10:54:31.991Z,3.33
2022-08-27T10:57:53.214Z,3.25
2022-08-27T11:00:17.750Z,3.33
2022-08-27T11:02:58.815Z,3.42
2022-08-27T11:08:08.147Z,3.50
2022-08-27T11:10:38.928Z,3.85
2022-08-27T11:13:10.704Z,4.00
2022-08-27T11:15:40.836Z,5.18
2022-08-27T11:18:41.392Z,5.67
2022-08-27T11:23:44.280Z,4.07
2022-08-27T11:26:13.910Z,4.57
2022-08-27T11:29:00.649Z,4.55
2022-08-27T11:31:44.090Z,4.38
2022-08-27T11:34:28.266Z,4.30
2022-08-27T11:37:14.517Z,4.00
2022-08-27T11:39:51.714Z,3.90
2022-08-27T11:42:41.480Z,4.63
2022-08-27T11:45:16.972Z,4.03
2022-08-27T11:47:58.369Z,4.28
2022-08-27T11:50:29.034Z,3.63
2022-08-27T11:53:06.531Z,3.13
2022-08-27T11:55:39.014Z,3.70
2022-08-27T11:58:18.013Z,3.85
2022-08-27T12:00:46.779Z,4.63
2022-08-27T12:03:21.066Z,3.05
2022-08-27T12:06:05.975Z,3.33
2022-08-27T12:08:35.362Z,3.45
2022-08-27T12:11:10.003Z,3.13
2022-08-27T12:13:59.984Z,3.58
2022-08-27T12:16:55.945Z,3.22
2022-08-27T12:19:57.760Z,3.08
2022-08-27T12:22:59.566Z,3.40
2022-08-27T12:25:30.591Z,4.03
2022-08-27T12:28:03.308Z,3.72
2022-08-27T12:30:33.896Z,3.60
2022-08-27T12:33:24.123Z,3.53
2022-08-27T12:35:52.385Z,3.22
2022-08-27T12:38:43.774Z,7.55
2022-08-27T12:41:44.213Z,4.28
2022-08-27T12:44:23.692Z,4.88
2022-08-27T12:47:08.259Z,5.57
2022-08-27T12:49:59.603Z,3.45
2022-08-27T12:53:12.847Z,3.78
2022-08-27T12:56:00.218Z,3.30
2022-08-27T12:59:17.044Z,3.78
2022-08-27T13:02:06.293Z,4.00
2022-08-27T13:04:37.177Z,4.03
2022-08-27T13:07:05.151Z,4.17
2022-08-27T13:09:35.199Z,4.00
2022-08-27T13:12:05.187Z,4.15
2022-08-27T13:14:42.153Z,3.58
2022-08-27T13:17:17.800Z,4.05
2022-08-27T13:19:57.234Z,3.97
2022-08-27T13:22:38.910Z,3.90
2022-08-27T13:25:07.598Z,3.58
2022-08-27T13:27:36.410Z,4.40
2022-08-27T13:30:07.651Z,4.72
2022-08-27T13:32:36.431Z,3.95
2022-08-27T13:35:04.713Z,4.68
2022-08-27T13:37:35.444Z,3.83
2022-08-27T13:40:03.546Z,4.40
2022-08-27T13:42:31.658Z,4.25
2022-08-27T13:45:04.234Z,4.72
2022-08-27T13:47:32.114Z,5.75
2022-08-27T13:50:08.823Z,4.97
2022-08-27T13:52:58.006Z,4.70
2022-08-27T13:55:25.913Z,5.53
2022-08-27T13:57:53.709Z,5.00
2022-08-27T14:00:27.212Z,5.97
2022-08-27T14:02:55.488Z,6.80
2022-08-27T14:05:23.738Z,6.15
2022-08-27T14:07:57.809Z,5.70
2022-08-27T14:10:34.332Z,7.18
2022-08-27T14:13:06.227Z,7.30
2022-08-27T14:15:38.551Z,5.85
2022-08-27T14:18:08.590Z,5.95
2022-08-27T14:20:37.168Z,5.88
2022-08-27T14:23:05.232Z,6.93
2022-08-27T14:25:34.715Z,5.43
2022-08-27T14:28:02.652Z,7.47
2022-08-27T14:30:31.562Z,22.70
2022-08-27T14:33:00.593Z,8.65
2022-08-27T14:35:29.186Z,6.80
2022-08-27T14:37:56.836Z,5.68
2022-08-27T14:40:24.484Z,5.97
2022-08-27T14:42:52.784Z,5.45
2022-08-27T14:45:21.007Z,5.10
2022-08-27T14:47:48.610Z,5.53
2022-08-27T14:50:16.499Z,5.72
2022-08-27T14:52:44.610Z,5.80
2022-08-27T14:55:13.876Z,4.95
2022-08-27T14:57:41.806Z,4.78
2022-08-27T15:00:10.276Z,5.47
2022-08-27T15:02:45.162Z,5.45
2022-08-27T15:05:18.156Z,5.32
2022-08-27T15:07:47.352Z,5.90
2022-08-27T15:10:15.142Z,5.72
2022-08-27T15:12:42.804Z,9.82
2022-08-27T15:15:10.818Z,15.65
2022-08-27T15:17:38.441Z,6.93
2022-08-27T15:20:09.056Z,6.90
2022-08-27T15:22:40.187Z,13.80
2022-08-27T15:25:11.874Z,19.98
2022-08-27T15:27:39.783Z,6.95
2022-08-27T15:30:10.092Z,9.68
2022-08-27T15:32:41.734Z,8.30
2022-08-27T15:37:41.315Z,6.47
2022-08-27T15:40:10.653Z,7.28
2022-08-27T15:42:38.648Z,8.65
2022-08-27T15:45:07.100Z,6.95
2022-08-27T15:47:35.763Z,8.20
2022-08-27T15:50:03.596Z,12.23
2022-08-27T15:52:40.388Z,11.30
2022-08-27T15:55:22.815Z,13.27
2022-08-27T15:57:50.639Z,12.00
2022-08-27T16:00:18.908Z,8.57
2022-08-27T16:02:47.023Z,11.52
2022-08-27T16:05:15.047Z,12.07
2022-08-27T16:07:42.800Z,12.73
2022-08-27T16:10:11.853Z,11.30
2022-08-27T16:12:39.467Z,11.25
2022-08-27T16:15:07.889Z,10.60
2022-08-27T16:17:35.749Z,9.02
2022-08-27T16:20:04.431Z,9.45
2022-08-27T16:22:32.071Z,9.95
2022-08-27T16:25:00.133Z,8.15
2022-08-27T16:27:27.713Z,8.27
2022-08-27T16:29:55.519Z,8.55
2022-08-27T16:32:25.759Z,10.00
2022-08-27T16:34:55.494Z,10.55
2022-08-27T16:37:24.897Z,10.23
2022-08-27T16:39:53.903Z,6.82
2022-08-27T16:42:21.689Z,7.95
2022-08-27T16:44:49.372Z,9.32
2022-08-27T16:47:16.957Z,7.60
2022-08-27T16:50:03.001Z,8.02
2022-08-27T16:52:31.133Z,7.90
2022-08-27T16:55:00.281Z,7.13
2022-08-27T16:57:27.870Z,9.10
2022-08-27T16:59:56.028Z,11.63
2022-08-27T17:02:30.229Z,10.98
2022-08-27T17:05:17.334Z,8.68
2022-08-27T17:07:49.082Z,8.10
2022-08-27T17:10:18.487Z,9.60
2022-08-27T17:12:47.288Z,9.32
2022-08-27T17:15:17.485Z,8.73
2022-08-27T17:17:46.640Z,9.02
2022-08-27T17:20:15.260Z,10.18
2022-08-27T17:22:43.564Z,11.60
2022-08-27T17:25:11.169Z,11.63
2022-08-27T17:27:38.713Z,10.13
2022-08-27T17:30:06.950Z,10.70
2022-08-27T17:32:37.489Z,10.10
2022-08-27T17:35:06.655Z,9.10
2022-08-27T17:37:34.607Z,10.80
2022-08-27T17:40:02.376Z,10.82
2022-08-27T17:42:31.231Z,9.48
2022-08-27T17:44:58.947Z,9.23
2022-08-27T17:47:27.078Z,10.00
2022-08-27T17:49:54.727Z,9.88
2022-08-27T17:52:22.570Z,10.20
2022-08-27T17:54:56.344Z,12.13
2022-08-27T17:57:29.549Z,11.68
2022-08-27T18:00:09.234Z,12.45
2022-08-27T18:02:39.267Z,12.25
2022-08-27T18:05:08.891Z,15.48
2022-08-27T18:07:39.838Z,15.70
2022-08-27T18:10:09.649Z,10.18
2022-08-27T18:12:37.188Z,9.25
2022-08-27T18:15:29.790Z,15.57
2022-08-27T18:17:58.265Z,11.20
2022-08-27T18:20:26.967Z,10.82
2022-08-27T18:22:54.795Z,11.23
2022-08-27T18:25:25.027Z,19.63
2022-08-27T18:27:54.850Z,16.70
2022-08-27T18:30:22.789Z,15.35
2022-08-27T18:32:50.569Z,13.95
2022-08-27T18:35:20.263Z,13.63
2022-08-27T18:37:48.000Z,13.80
2022-08-27T18:40:16.506Z,13.07
2022-08-27T18:42:44.334Z,12.80
2022-08-27T18:45:16.009Z,13.52
2022-08-27T18:47:43.861Z,11.82
2022-08-27T18:50:17.737Z,12.65
2022-08-27T18:52:46.616Z,12.25
2022-08-27T18:55:16.469Z,11.45
2022-08-27T18:57:44.341Z,12.85
2022-08-27T19:00:13.511Z,12.48
2022-08-27T19:02:41.392Z,11.55
2022-08-27T19:05:09.720Z,12.02
2022-08-27T19:07:37.900Z,12.93
2022-08-27T19:10:06.350Z,13.55
2022-08-27T19:12:34.256Z,11.73
2022-08-27T19:15:04.734Z,14.67
2022-08-27T19:17:33.417Z,20.05
2022-08-27T19:20:01.145Z,13.25
2022-08-27T19:22:30.851Z,13.55
2022-08-27T19:24:58.613Z,17.20
2022-08-27T19:27:27.665Z,14.90
2022-08-27T19:29:56.184Z,13.85
2022-08-27T19:32:23.799Z,13.98
2022-08-27T19:34:51.434Z,12.70
2022-08-27T19:37:21.746Z,13.77
2022-08-27T19:39:49.459Z,14.07
2022-08-27T19:42:17.269Z,14.13
2022-08-27T19:44:45.599Z,14.18
2022-08-27T19:47:14.191Z,13.35
2022-08-27T19:49:45.054Z,14.27
2022-08-27T19:52:12.948Z,12.65
2022-08-27T19:54:56.831Z,12.40
2022-08-27T19:57:28.240Z,12.98
2022-08-27T19:59:55.817Z,12.90
2022-08-27T20:02:23.349Z,13.07
2022-08-27T20:05:14.188Z,13.15
2022-08-27T20:07:38.509Z,13.00
2022-08-27T20:10:08.130Z,13.10
2022-08-27T20:12:37.217Z,16.55
2022-08-27T20:15:06.459Z,14.65
2022-08-27T20:17:35.665Z,19.50
2022-08-27T20:20:04.493Z,26.67
2022-08-27T20:22:32.496Z,24.23
2022-08-27T20:25:00.125Z,26.05
2022-08-27T20:27:27.749Z,19.58
2022-08-27T20:29:56.105Z,14.82
2022-08-27T20:32:29.698Z,17.15
2022-08-27T20:34:58.536Z,24.48
2022-08-27T20:37:26.304Z,19.48
2022-08-27T20:39:54.141Z,19.48
2022-08-27T20:42:21.740Z,20.42
2022-08-27T20:44:49.502Z,17.85
2022-08-27T20:47:17.130Z,16.13
2022-08-27T20:49:45.091Z,17.17
2022-08-27T20:52:13.148Z,14.27
2022-08-27T20:54:41.011Z,16.70
2022-08-27T20:57:09.079Z,15.52
2022-08-27T20:59:56.109Z,13.90
2022-08-27T21:02:25.349Z,14.20
2022-08-27T21:04:53.161Z,15.57
2022-08-27T21:07:21.180Z,14.70
2022-08-27T21:09:57.193Z,14.55
2022-08-27T21:12:26.577Z,13.77
2022-08-27T21:14:56.277Z,12.95
2022-08-27T21:17:26.629Z,14.13
2022-08-27T21:19:54.274Z,13.50
2022-08-27T21:22:22.264Z,13.88
2022-08-27T21:24:49.904Z,13.73
2022-08-27T21:27:18.123Z,13.73
2022-08-27T21:29:45.746Z,14.23
2022-08-27T21:32:14.423Z,13.65
2022-08-27T21:34:42.313Z,12.68
2022-08-27T21:37:11.632Z,13.02
2022-08-27T21:39:40.107Z,13.45
2022-08-27T21:42:08.228Z,13.45
2022-08-27T21:44:36.175Z,13.52
2022-08-27T21:47:03.989Z,12.15
2022-08-27T21:49:32.710Z,12.45
2022-08-27T21:52:01.027Z,14.02
2022-08-27T21:54:30.165Z,16.70
2022-08-27T21:56:57.863Z,13.95
2022-08-27T21:59:25.388Z,13.60
2022-08-27T22:02:00.213Z,12.18
2022-08-27T22:04:29.780Z,12.63
2022-08-27T22:06:59.606Z,11.82
2022-08-27T22:09:27.536Z,12.75
2022-08-27T22:11:56.334Z,13.00
2022-08-27T22:14:24.145Z,12.85
2022-08-27T22:16:51.996Z,12.63
2022-08-27T22:19:19.816Z,11.57
2022-08-27T22:21:47.556Z,12.18
2022-08-27T22:24:15.204Z,13.20
2022-08-27T22:26:43.033Z,12.10
2022-08-27T22:29:10.717Z,11.20
2022-08-27T22:31:39.677Z,12.10
2022-08-27T22:34:08.261Z,10.82
2022-08-27T22:36:42.523Z,10.35
2022-08-27T22:39:10.072Z,10.75
2022-08-27T22:41:37.944Z,20.00
2022-08-27T22:44:09.603Z,14.90
2022-08-27T22:46:37.199Z,13.18
2022-08-27T22:49:04.894Z,13.10
2022-08-27T22:51:32.502Z,11.07
2022-08-27T22:54:00.067Z,11.05
2022-08-27T22:56:27.627Z,11.18
2022-08-27T22:58:55.290Z,11.80
2022-08-27T23:01:22.926Z,10.43
2022-08-27T23:03:50.594Z,10.18
2022-08-27T23:06:18.240Z,11.05
2022-08-27T23:08:45.944Z,13.85
2022-08-27T23:11:13.582Z,12.70
2022-08-27T23:13:41.308Z,11.77
2022-08-27T23:16:11.909Z,10.95
2022-08-27T23:18:40.773Z,10.93
2022-08-27T23:21:09.600Z,10.63
2022-08-27T23:23:37.426Z,10.07
2022-08-27T23:26:24.069Z,9.30
2022-08-27T23:28:51.547Z,11.07
2022-08-27T23:31:19.542Z,13.75
2022-08-27T23:33:47.097Z,18.48
2022-08-27T23:36:14.731Z,9.80
2022-08-27T23:38:42.618Z,13.13
2022-08-27T23:41:10.721Z,10.98
2022-08-27T23:43:38.693Z,10.40
2022-08-27T23:46:06.240Z,11.68
2022-08-27T23:48:33.871Z,11.43
2022-08-27T23:51:01.559Z,11.18
2022-08-27T23:53:29.184Z,10.07
2022-08-27T23:55:56.676Z,9.63
2022-08-27T23:58:24.633Z,8.90
